sensor_id;sensor_type;location;lat;lon;timestamp;temperature;humidity
64012;DHT22;50211;52.768;12.124;2023-05-16T00:01:04;11.00;99.90
64012;DHT22;50211;52.768;12.124;2023-05-16T00:03:29;10.90;99.90
64012;DHT22;50211;52.768;12.124;2023-05-16T00:05:55;10.90;99.90
64012;DHT22;50211;52.768;12.124;2023-05-16T00:08:22;10.80;99.90
64012;DHT22;50211;52.768;12.124;2023-05-16T00:10:47;10.80;99.90
64012;DHT22;50211;52.768;12.124;2023-05-16T00:13:13;10.80;99.90
64012;DHT22;50211;52.768;12.124;2023-05-16T00:15:38;10.80;99.90
64012;DHT22;50211;52.768;12.124;2023-05-16T00:18:04;10.70;99.90
64012;DHT22;50211;52.768;12.124;2023-05-16T00:20:29;10.70;99.90
64012;DHT22;50211;52.768;12.124;2023-05-16T00:22:56;10.70;99.90
64012;DHT22;50211;52.768;12.124;2023-05-16T00:25:25;10.60;99.90
64012;DHT22;50211;52.768;12.124;2023-05-16T00:27:50;10.50;99.90
64012;DHT22;50211;52.768;12.124;2023-05-16T00:30:16;10.50;99.90
64012;DHT22;50211;52.768;12.124;2023-05-16T00:32:41;10.40;99.90
64012;DHT22;50211;52.768;12.124;2023-05-16T00:35:07;10.40;99.90
64012;DHT22;50211;52.768;12.124;2023-05-16T00:37:36;10.30;99.90
64012;DHT22;50211;52.768;12.124;2023-05-16T00:40:01;10.30;99.90
64012;DHT22;50211;52.768;12.124;2023-05-16T00:42:27;10.20;99.90
64012;DHT22;50211;52.768;12.124;2023-05-16T00:44:52;10.20;99.90
64012;DHT22;50211;52.768;12.124;2023-05-16T00:47:18;10.10;99.90
64012;DHT22;50211;52.768;12.124;2023-05-16T00:49:43;10.00;99.90
64012;DHT22;50211;52.768;12.124;2023-05-16T00:52:09;10.00;99.90
64012;DHT22;50211;52.768;12.124;2023-05-16T00:54:35;10.00;99.90
64012;DHT22;50211;52.768;12.124;2023-05-16T00:57:01;10.00;99.90
64012;DHT22;50211;52.768;12.124;2023-05-16T00:59:27;9.90;99.90
64012;DHT22;50211;52.768;12.124;2023-05-16T01:01:53;10.00;99.90
64012;DHT22;50211;52.768;12.124;2023-05-16T01:04:20;10.00;99.90
64012;DHT22;50211;52.768;12.124;2023-05-16T01:06:45;10.00;99.90
64012;DHT22;50211;52.768;12.124;2023-05-16T01:09:12;10.10;99.90
64012;DHT22;50211;52.768;12.124;2023-05-16T01:11:50;10.10;99.90
64012;DHT22;50211;52.768;12.124;2023-05-16T01:14:40;10.20;99.90
64012;DHT22;50211;52.768;12.124;2023-05-16T01:25:36;10.20;99.90
64012;DHT22;50211;52.768;12.124;2023-05-16T01:28:04;10.20;99.90
64012;DHT22;50211;52.768;12.124;2023-05-16T01:30:38;10.20;99.90
64012;DHT22;50211;52.768;12.124;2023-05-16T01:33:04;10.20;99.90
64012;DHT22;50211;52.768;12.124;2023-05-16T01:35:29;10.10;99.90
64012;DHT22;50211;52.768;12.124;2023-05-16T01:38:25;10.10;99.90
64012;DHT22;50211;52.768;12.124;2023-05-16T01:41:01;10.10;99.90
64012;DHT22;50211;52.768;12.124;2023-05-16T01:43:42;10.10;99.90
64012;DHT22;50211;52.768;12.124;2023-05-16T01:46:13;10.10;99.90
64012;DHT22;50211;52.768;12.124;2023-05-16T01:49:01;10.10;99.90
64012;DHT22;50211;52.768;12.124;2023-05-16T01:51:30;10.10;99.90
64012;DHT22;50211;52.768;12.124;2023-05-16T01:54:00;10.10;99.90
64012;DHT22;50211;52.768;12.124;2023-05-16T01:56:27;10.20;99.90
64012;DHT22;50211;52.768;12.124;2023-05-16T01:58:54;10.20;99.90
64012;DHT22;50211;52.768;12.124;2023-05-16T02:01:22;10.10;99.90
64012;DHT22;50211;52.768;12.124;2023-05-16T02:03:47;10.10;99.90
64012;DHT22;50211;52.768;12.124;2023-05-16T02:06:13;10.00;99.90
64012;DHT22;50211;52.768;12.124;2023-05-16T02:08:38;10.00;99.90
64012;DHT22;50211;52.768;12.124;2023-05-16T02:11:03;10.00;99.90
64012;DHT22;50211;52.768;12.124;2023-05-16T02:13:29;10.00;99.90
64012;DHT22;50211;52.768;12.124;2023-05-16T02:15:55;9.90;99.90
64012;DHT22;50211;52.768;12.124;2023-05-16T02:18:20;10.00;99.90
64012;DHT22;50211;52.768;12.124;2023-05-16T02:20:48;9.90;99.90
64012;DHT22;50211;52.768;12.124;2023-05-16T02:23:13;9.90;99.90
64012;DHT22;50211;52.768;12.124;2023-05-16T02:25:39;9.90;99.90
64012;DHT22;50211;52.768;12.124;2023-05-16T02:28:05;9.90;99.90
64012;DHT22;50211;52.768;12.124;2023-05-16T02:30:31;9.90;99.90
64012;DHT22;50211;52.768;12.124;2023-05-16T02:32:56;9.80;99.90
64012;DHT22;50211;52.768;12.124;2023-05-16T02:35:22;9.90;99.90
64012;DHT22;50211;52.768;12.124;2023-05-16T02:37:47;9.90;99.90
64012;DHT22;50211;52.768;12.124;2023-05-16T02:40:13;9.80;99.90
64012;DHT22;50211;52.768;12.124;2023-05-16T02:42:39;9.80;99.90
64012;DHT22;50211;52.768;12.124;2023-05-16T02:45:05;9.80;99.90
64012;DHT22;50211;52.768;12.124;2023-05-16T02:47:30;9.90;99.90
64012;DHT22;50211;52.768;12.124;2023-05-16T02:49:56;9.90;99.90
64012;DHT22;50211;52.768;12.124;2023-05-16T02:52:21;9.90;99.90
64012;DHT22;50211;52.768;12.124;2023-05-16T02:54:48;9.90;99.90
64012;DHT22;50211;52.768;12.124;2023-05-16T02:57:13;9.90;99.90
64012;DHT22;50211;52.768;12.124;2023-05-16T02:59:39;9.90;99.90
64012;DHT22;50211;52.768;12.124;2023-05-16T03:02:04;9.90;99.90
64012;DHT22;50211;52.768;12.124;2023-05-16T03:04:30;9.80;99.90
64012;DHT22;50211;52.768;12.124;2023-05-16T03:06:56;9.90;99.90
64012;DHT22;50211;52.768;12.124;2023-05-16T03:09:22;9.80;99.90
64012;DHT22;50211;52.768;12.124;2023-05-16T03:11:47;9.90;99.90
64012;DHT22;50211;52.768;12.124;2023-05-16T03:14:13;9.90;99.90
64012;DHT22;50211;52.768;12.124;2023-05-16T03:16:38;9.90;99.90
64012;DHT22;50211;52.768;12.124;2023-05-16T03:19:06;9.90;99.90
64012;DHT22;50211;52.768;12.124;2023-05-16T03:21:31;9.90;99.90
64012;DHT22;50211;52.768;12.124;2023-05-16T03:23:57;9.90;99.90
64012;DHT22;50211;52.768;12.124;2023-05-16T03:26:26;9.90;99.90
64012;DHT22;50211;52.768;12.124;2023-05-16T03:28:51;9.90;99.90
64012;DHT22;50211;52.768;12.124;2023-05-16T03:31:17;9.90;99.90
64012;DHT22;50211;52.768;12.124;2023-05-16T03:33:42;9.90;99.90
64012;DHT22;50211;52.768;12.124;2023-05-16T03:36:08;10.00;99.90
64012;DHT22;50211;52.768;12.124;2023-05-16T03:38:35;10.00;99.90
64012;DHT22;50211;52.768;12.124;2023-05-16T03:41:00;10.00;99.90
64012;DHT22;50211;52.768;12.124;2023-05-16T03:43:26;10.00;99.90
64012;DHT22;50211;52.768;12.124;2023-05-16T03:45:51;10.00;99.90
64012;DHT22;50211;52.768;12.124;2023-05-16T03:48:17;10.00;99.90
64012;DHT22;50211;52.768;12.124;2023-05-16T03:50:43;10.00;99.90
64012;DHT22;50211;52.768;12.124;2023-05-16T03:53:09;10.10;99.90
64012;DHT22;50211;52.768;12.124;2023-05-16T03:55:34;10.00;99.90
64012;DHT22;50211;52.768;12.124;2023-05-16T03:58:00;10.10;99.90
64012;DHT22;50211;52.768;12.124;2023-05-16T04:00:25;10.10;99.90
64012;DHT22;50211;52.768;12.124;2023-05-16T04:02:51;10.10;99.90
64012;DHT22;50211;52.768;12.124;2023-05-16T04:05:17;10.10;99.90
64012;DHT22;50211;52.768;12.124;2023-05-16T04:07:42;10.10;99.90
64012;DHT22;50211;52.768;12.124;2023-05-16T04:10:08;10.00;99.90
64012;DHT22;50211;52.768;12.124;2023-05-16T04:12:34;10.00;99.90
64012;DHT22;50211;52.768;12.124;2023-05-16T04:15:01;10.00;99.90
64012;DHT22;50211;52.768;12.124;2023-05-16T04:17:26;10.00;99.90
64012;DHT22;50211;52.768;12.124;2023-05-16T04:19:52;10.00;99.90
64012;DHT22;50211;52.768;12.124;2023-05-16T04:22:19;10.00;99.90
64012;DHT22;50211;52.768;12.124;2023-05-16T04:24:45;10.00;99.90
64012;DHT22;50211;52.768;12.124;2023-05-16T04:27:10;10.00;99.90
64012;DHT22;50211;52.768;12.124;2023-05-16T04:29:36;10.00;99.90
64012;DHT22;50211;52.768;12.124;2023-05-16T04:32:02;10.00;99.90
64012;DHT22;50211;52.768;12.124;2023-05-16T04:34:27;10.00;99.90
64012;DHT22;50211;52.768;12.124;2023-05-16T04:36:53;10.10;99.90
64012;DHT22;50211;52.768;12.124;2023-05-16T04:39:19;10.10;99.90
64012;DHT22;50211;52.768;12.124;2023-05-16T04:41:45;10.10;99.90
64012;DHT22;50211;52.768;12.124;2023-05-16T04:44:10;10.10;99.90
64012;DHT22;50211;52.768;12.124;2023-05-16T04:46:36;10.10;99.90
64012;DHT22;50211;52.768;12.124;2023-05-16T04:49:02;10.10;99.90
64012;DHT22;50211;52.768;12.124;2023-05-16T04:51:27;10.20;99.90
64012;DHT22;50211;52.768;12.124;2023-05-16T04:53:53;10.20;99.90
64012;DHT22;50211;52.768;12.124;2023-05-16T04:56:19;10.10;99.90
64012;DHT22;50211;52.768;12.124;2023-05-16T04:58:45;10.10;99.90
64012;DHT22;50211;52.768;12.124;2023-05-16T05:01:10;10.20;99.90
64012;DHT22;50211;52.768;12.124;2023-05-16T05:03:36;10.20;99.90
64012;DHT22;50211;52.768;12.124;2023-05-16T05:06:02;10.20;99.90
64012;DHT22;50211;52.768;12.124;2023-05-16T05:08:28;10.20;99.90
64012;DHT22;50211;52.768;12.124;2023-05-16T05:10:55;10.20;99.90
64012;DHT22;50211;52.768;12.124;2023-05-16T05:13:20;10.20;99.90
64012;DHT22;50211;52.768;12.124;2023-05-16T05:15:46;10.20;99.90
64012;DHT22;50211;52.768;12.124;2023-05-16T05:18:12;10.30;99.90
64012;DHT22;50211;52.768;12.124;2023-05-16T05:20:37;10.30;99.90
64012;DHT22;50211;52.768;12.124;2023-05-16T05:23:03;10.40;99.90
64012;DHT22;50211;52.768;12.124;2023-05-16T05:25:28;10.50;99.90
64012;DHT22;50211;52.768;12.124;2023-05-16T05:27:54;10.50;99.90
64012;DHT22;50211;52.768;12.124;2023-05-16T05:30:20;10.60;99.90
64012;DHT22;50211;52.768;12.124;2023-05-16T05:32:45;10.60;99.90
64012;DHT22;50211;52.768;12.124;2023-05-16T05:35:11;10.50;99.90
64012;DHT22;50211;52.768;12.124;2023-05-16T05:37:36;10.50;99.90
64012;DHT22;50211;52.768;12.124;2023-05-16T05:40:02;10.50;99.90
64012;DHT22;50211;52.768;12.124;2023-05-16T05:42:28;10.50;99.90
64012;DHT22;50211;52.768;12.124;2023-05-16T05:44:53;10.60;99.90
64012;DHT22;50211;52.768;12.124;2023-05-16T05:47:19;10.60;99.90
64012;DHT22;50211;52.768;12.124;2023-05-16T05:49:46;10.70;99.90
64012;DHT22;50211;52.768;12.124;2023-05-16T05:52:11;10.80;99.90
64012;DHT22;50211;52.768;12.124;2023-05-16T05:54:37;10.80;99.90
64012;DHT22;50211;52.768;12.124;2023-05-16T05:57:02;10.80;99.90
64012;DHT22;50211;52.768;12.124;2023-05-16T05:59:28;10.70;99.90
64012;DHT22;50211;52.768;12.124;2023-05-16T06:01:53;10.80;99.90
64012;DHT22;50211;52.768;12.124;2023-05-16T06:04:19;10.70;99.90
64012;DHT22;50211;52.768;12.124;2023-05-16T06:06:45;10.70;99.90
64012;DHT22;50211;52.768;12.124;2023-05-16T06:09:11;10.70;99.90
64012;DHT22;50211;52.768;12.124;2023-05-16T06:11:38;10.80;99.90
64012;DHT22;50211;52.768;12.124;2023-05-16T06:14:03;10.70;99.90
64012;DHT22;50211;52.768;12.124;2023-05-16T06:16:29;10.80;99.90
64012;DHT22;50211;52.768;12.124;2023-05-16T06:18:55;11.00;99.90
64012;DHT22;50211;52.768;12.124;2023-05-16T06:21:21;11.00;99.90
64012;DHT22;50211;52.768;12.124;2023-05-16T06:23:46;11.00;99.90
64012;DHT22;50211;52.768;12.124;2023-05-16T06:26:12;11.00;99.90
64012;DHT22;50211;52.768;12.124;2023-05-16T06:28:37;11.00;99.90
64012;DHT22;50211;52.768;12.124;2023-05-16T06:31:03;11.00;99.90
64012;DHT22;50211;52.768;12.124;2023-05-16T06:33:28;11.10;99.90
64012;DHT22;50211;52.768;12.124;2023-05-16T06:35:54;11.10;99.90
64012;DHT22;50211;52.768;12.124;2023-05-16T06:38:19;11.00;99.90
64012;DHT22;50211;52.768;12.124;2023-05-16T06:40:45;11.00;99.90
64012;DHT22;50211;52.768;12.124;2023-05-16T06:43:11;11.00;99.90
64012;DHT22;50211;52.768;12.124;2023-05-16T06:45:36;10.90;99.90
64012;DHT22;50211;52.768;12.124;2023-05-16T06:48:03;10.90;99.90
64012;DHT22;50211;52.768;12.124;2023-05-16T06:50:28;10.80;99.90
64012;DHT22;50211;52.768;12.124;2023-05-16T06:52:54;10.90;99.90
64012;DHT22;50211;52.768;12.124;2023-05-16T06:55:19;10.90;99.90
64012;DHT22;50211;52.768;12.124;2023-05-16T06:57:45;11.00;99.90
64012;DHT22;50211;52.768;12.124;2023-05-16T07:00:11;10.80;99.90
64012;DHT22;50211;52.768;12.124;2023-05-16T07:02:36;10.90;99.90
64012;DHT22;50211;52.768;12.124;2023-05-16T07:05:02;10.80;99.90
64012;DHT22;50211;52.768;12.124;2023-05-16T07:07:28;10.80;99.90
64012;DHT22;50211;52.768;12.124;2023-05-16T07:09:53;10.80;99.90
64012;DHT22;50211;52.768;12.124;2023-05-16T07:12:19;10.80;99.90
64012;DHT22;50211;52.768;12.124;2023-05-16T07:14:45;10.90;99.90
64012;DHT22;50211;52.768;12.124;2023-05-16T07:17:11;10.90;99.90
64012;DHT22;50211;52.768;12.124;2023-05-16T07:19:36;10.90;99.90
64012;DHT22;50211;52.768;12.124;2023-05-16T07:22:02;11.00;99.90
64012;DHT22;50211;52.768;12.124;2023-05-16T07:24:28;11.00;99.90
64012;DHT22;50211;52.768;12.124;2023-05-16T07:26:53;11.00;99.90
64012;DHT22;50211;52.768;12.124;2023-05-16T07:29:19;11.10;99.90
64012;DHT22;50211;52.768;12.124;2023-05-16T07:31:44;11.10;99.90
64012;DHT22;50211;52.768;12.124;2023-05-16T07:34:10;11.20;99.90
64012;DHT22;50211;52.768;12.124;2023-05-16T07:36:36;11.20;99.90
64012;DHT22;50211;52.768;12.124;2023-05-16T07:39:02;11.20;99.90
64012;DHT22;50211;52.768;12.124;2023-05-16T07:41:31;11.20;99.90
64012;DHT22;50211;52.768;12.124;2023-05-16T07:43:56;11.00;99.90
64012;DHT22;50211;52.768;12.124;2023-05-16T07:46:22;11.00;99.90
64012;DHT22;50211;52.768;12.124;2023-05-16T07:48:47;10.90;99.90
64012;DHT22;50211;52.768;12.124;2023-05-16T07:51:13;10.90;99.90
64012;DHT22;50211;52.768;12.124;2023-05-16T07:53:38;10.90;99.90
64012;DHT22;50211;52.768;12.124;2023-05-16T07:56:04;11.00;99.90
64012;DHT22;50211;52.768;12.124;2023-05-16T07:58:32;11.00;99.90
64012;DHT22;50211;52.768;12.124;2023-05-16T08:00:57;11.10;99.90
64012;DHT22;50211;52.768;12.124;2023-05-16T08:03:23;11.10;99.90
64012;DHT22;50211;52.768;12.124;2023-05-16T08:05:48;11.10;99.90
64012;DHT22;50211;52.768;12.124;2023-05-16T08:08:14;11.10;99.90
64012;DHT22;50211;52.768;12.124;2023-05-16T08:10:39;11.20;99.90
64012;DHT22;50211;52.768;12.124;2023-05-16T08:13:05;11.20;99.90
64012;DHT22;50211;52.768;12.124;2023-05-16T08:15:31;11.30;99.90
64012;DHT22;50211;52.768;12.124;2023-05-16T08:17:57;11.30;99.90
64012;DHT22;50211;52.768;12.124;2023-05-16T08:20:23;11.20;99.90
64012;DHT22;50211;52.768;12.124;2023-05-16T08:22:49;11.20;99.90
64012;DHT22;50211;52.768;12.124;2023-05-16T08:25:15;11.40;99.90
64012;DHT22;50211;52.768;12.124;2023-05-16T08:27:40;11.40;99.90
64012;DHT22;50211;52.768;12.124;2023-05-16T08:30:06;11.30;99.90
64012;DHT22;50211;52.768;12.124;2023-05-16T08:32:32;11.50;99.90
64012;DHT22;50211;52.768;12.124;2023-05-16T08:34:58;11.60;99.90
64012;DHT22;50211;52.768;12.124;2023-05-16T08:37:24;11.70;99.90
64012;DHT22;50211;52.768;12.124;2023-05-16T08:39:49;11.80;99.90
64012;DHT22;50211;52.768;12.124;2023-05-16T08:42:15;12.20;99.90
64012;DHT22;50211;52.768;12.124;2023-05-16T08:44:40;12.40;99.90
64012;DHT22;50211;52.768;12.124;2023-05-16T08:47:17;12.50;99.90
64012;DHT22;50211;52.768;12.124;2023-05-16T08:49:43;12.30;99.90
64012;DHT22;50211;52.768;12.124;2023-05-16T08:52:12;12.10;99.90
64012;DHT22;50211;52.768;12.124;2023-05-16T08:54:38;12.10;99.90
64012;DHT22;50211;52.768;12.124;2023-05-16T08:57:05;12.10;99.90
64012;DHT22;50211;52.768;12.124;2023-05-16T08:59:32;12.20;99.90
64012;DHT22;50211;52.768;12.124;2023-05-16T09:01:57;12.20;99.90
64012;DHT22;50211;52.768;12.124;2023-05-16T09:04:23;12.20;99.90
64012;DHT22;50211;52.768;12.124;2023-05-16T09:06:51;12.10;99.90
64012;DHT22;50211;52.768;12.124;2023-05-16T09:09:16;12.10;99.90
64012;DHT22;50211;52.768;12.124;2023-05-16T09:11:42;12.00;99.90
64012;DHT22;50211;52.768;12.124;2023-05-16T09:14:08;12.00;99.90
64012;DHT22;50211;52.768;12.124;2023-05-16T09:16:33;11.90;99.90
64012;DHT22;50211;52.768;12.124;2023-05-16T09:19:00;12.00;99.90
64012;DHT22;50211;52.768;12.124;2023-05-16T09:21:31;12.30;99.90
64012;DHT22;50211;52.768;12.124;2023-05-16T09:24:04;12.50;99.90
64012;DHT22;50211;52.768;12.124;2023-05-16T09:26:35;12.70;99.90
64012;DHT22;50211;52.768;12.124;2023-05-16T09:29:01;12.80;99.90
64012;DHT22;50211;52.768;12.124;2023-05-16T09:31:28;13.40;99.90
64012;DHT22;50211;52.768;12.124;2023-05-16T09:34:08;13.80;99.90
64012;DHT22;50211;52.768;12.124;2023-05-16T09:36:36;14.50;99.90
64012;DHT22;50211;52.768;12.124;2023-05-16T09:39:04;14.60;99.90
64012;DHT22;50211;52.768;12.124;2023-05-16T09:41:33;14.40;99.90
64012;DHT22;50211;52.768;12.124;2023-05-16T09:44:03;15.00;99.90
64012;DHT22;50211;52.768;12.124;2023-05-16T09:46:28;14.50;99.90
64012;DHT22;50211;52.768;12.124;2023-05-16T09:48:54;14.00;99.90
64012;DHT22;50211;52.768;12.124;2023-05-16T09:51:21;14.10;99.90
64012;DHT22;50211;52.768;12.124;2023-05-16T09:53:47;13.90;99.90
64012;DHT22;50211;52.768;12.124;2023-05-16T09:56:13;13.90;99.90
64012;DHT22;50211;52.768;12.124;2023-05-16T09:58:41;13.90;99.90
64012;DHT22;50211;52.768;12.124;2023-05-16T10:01:09;13.70;99.90
64012;DHT22;50211;52.768;12.124;2023-05-16T10:03:36;13.40;99.90
64012;DHT22;50211;52.768;12.124;2023-05-16T10:06:03;13.10;99.90
64012;DHT22;50211;52.768;12.124;2023-05-16T10:08:31;13.00;99.90
64012;DHT22;50211;52.768;12.124;2023-05-16T10:11:01;13.00;99.90
64012;DHT22;50211;52.768;12.124;2023-05-16T10:13:31;13.60;99.90
64012;DHT22;50211;52.768;12.124;2023-05-16T10:15:58;14.50;99.90
64012;DHT22;50211;52.768;12.124;2023-05-16T10:18:29;15.30;99.90
64012;DHT22;50211;52.768;12.124;2023-05-16T10:20:57;15.70;99.90
64012;DHT22;50211;52.768;12.124;2023-05-16T10:23:24;16.40;99.90
64012;DHT22;50211;52.768;12.124;2023-05-16T10:25:51;16.40;99.90
64012;DHT22;50211;52.768;12.124;2023-05-16T10:28:16;16.10;99.90
64012;DHT22;50211;52.768;12.124;2023-05-16T10:30:44;16.10;99.90
64012;DHT22;50211;52.768;12.124;2023-05-16T10:33:14;16.10;99.90
64012;DHT22;50211;52.768;12.124;2023-05-16T10:35:41;16.50;99.90
64012;DHT22;50211;52.768;12.124;2023-05-16T10:38:08;16.30;99.90
64012;DHT22;50211;52.768;12.124;2023-05-16T10:40:37;15.90;99.90
64012;DHT22;50211;52.768;12.124;2023-05-16T10:43:03;15.90;99.90
64012;DHT22;50211;52.768;12.124;2023-05-16T10:45:29;16.10;99.90
64012;DHT22;50211;52.768;12.124;2023-05-16T10:48:00;16.70;99.90
64012;DHT22;50211;52.768;12.124;2023-05-16T10:50:42;17.40;99.90
64012;DHT22;50211;52.768;12.124;2023-05-16T10:53:32;17.20;99.90
64012;DHT22;50211;52.768;12.124;2023-05-16T10:58:45;17.10;99.90
64012;DHT22;50211;52.768;12.124;2023-05-16T11:01:33;17.10;99.90
64012;DHT22;50211;52.768;12.124;2023-05-16T11:04:03;17.10;99.90
64012;DHT22;50211;52.768;12.124;2023-05-16T11:19:40;17.70;99.90
64012;DHT22;50211;52.768;12.124;2023-05-16T11:22:10;17.90;99.90
64012;DHT22;50211;52.768;12.124;2023-05-16T11:24:37;17.60;99.90
64012;DHT22;50211;52.768;12.124;2023-05-16T11:27:05;17.20;99.90
64012;DHT22;50211;52.768;12.124;2023-05-16T11:29:34;17.20;99.90
64012;DHT22;50211;52.768;12.124;2023-05-16T11:32:02;17.10;99.90
64012;DHT22;50211;52.768;12.124;2023-05-16T11:34:29;16.70;99.90
64012;DHT22;50211;52.768;12.124;2023-05-16T11:36:55;16.90;99.90
64012;DHT22;50211;52.768;12.124;2023-05-16T11:39:21;17.30;99.90
64012;DHT22;50211;52.768;12.124;2023-05-16T11:41:50;18.00;99.90
64012;DHT22;50211;52.768;12.124;2023-05-16T11:44:16;18.20;99.90
64012;DHT22;50211;52.768;12.124;2023-05-16T11:46:41;17.90;99.90
64012;DHT22;50211;52.768;12.124;2023-05-16T11:49:08;17.50;99.90
64012;DHT22;50211;52.768;12.124;2023-05-16T11:51:37;17.40;99.90
64012;DHT22;50211;52.768;12.124;2023-05-16T11:54:03;17.20;99.90
64012;DHT22;50211;52.768;12.124;2023-05-16T11:56:34;17.20;99.90
64012;DHT22;50211;52.768;12.124;2023-05-16T11:59:00;16.60;99.90
64012;DHT22;50211;52.768;12.124;2023-05-16T12:01:32;16.30;99.90
64012;DHT22;50211;52.768;12.124;2023-05-16T12:03:58;16.70;99.90
64012;DHT22;50211;52.768;12.124;2023-05-16T12:06:23;17.50;99.90
64012;DHT22;50211;52.768;12.124;2023-05-16T12:08:50;18.00;99.90
64012;DHT22;50211;52.768;12.124;2023-05-16T12:11:16;18.30;99.90
64012;DHT22;50211;52.768;12.124;2023-05-16T12:13:41;18.20;99.90
64012;DHT22;50211;52.768;12.124;2023-05-16T12:16:07;17.70;99.90
64012;DHT22;50211;52.768;12.124;2023-05-16T12:18:33;17.40;99.90
64012;DHT22;50211;52.768;12.124;2023-05-16T12:20:58;17.60;99.90
64012;DHT22;50211;52.768;12.124;2023-05-16T12:23:25;17.30;99.90
64012;DHT22;50211;52.768;12.124;2023-05-16T12:25:51;17.30;99.90
64012;DHT22;50211;52.768;12.124;2023-05-16T12:28:19;17.90;99.90
64012;DHT22;50211;52.768;12.124;2023-05-16T12:30:45;17.80;99.50
64012;DHT22;50211;52.768;12.124;2023-05-16T12:33:13;18.10;99.90
64012;DHT22;50211;52.768;12.124;2023-05-16T12:35:41;18.10;98.30
64012;DHT22;50211;52.768;12.124;2023-05-16T12:38:08;18.30;99.10
64012;DHT22;50211;52.768;12.124;2023-05-16T12:40:38;19.10;99.90
64012;DHT22;50211;52.768;12.124;2023-05-16T12:43:11;19.20;98.40
64012;DHT22;50211;52.768;12.124;2023-05-16T12:45:37;18.70;98.40
64012;DHT22;50211;52.768;12.124;2023-05-16T12:48:11;18.40;97.10
64012;DHT22;50211;52.768;12.124;2023-05-16T12:50:38;17.80;97.40
64012;DHT22;50211;52.768;12.124;2023-05-16T12:53:03;17.80;99.60
64012;DHT22;50211;52.768;12.124;2023-05-16T12:55:29;18.00;97.30
64012;DHT22;50211;52.768;12.124;2023-05-16T12:57:55;18.00;97.70
64012;DHT22;50211;52.768;12.124;2023-05-16T13:00:22;17.80;99.90
64012;DHT22;50211;52.768;12.124;2023-05-16T13:02:48;18.20;99.90
64012;DHT22;50211;52.768;12.124;2023-05-16T13:05:14;19.10;99.90
64012;DHT22;50211;52.768;12.124;2023-05-16T13:07:40;19.20;99.40
64012;DHT22;50211;52.768;12.124;2023-05-16T13:10:07;19.00;98.70
64012;DHT22;50211;52.768;12.124;2023-05-16T13:12:35;18.80;97.30
64012;DHT22;50211;52.768;12.124;2023-05-16T13:15:01;19.30;92.60
64012;DHT22;50211;52.768;12.124;2023-05-16T13:17:26;18.80;92.40
64012;DHT22;50211;52.768;12.124;2023-05-16T13:19:54;18.80;93.50
64012;DHT22;50211;52.768;12.124;2023-05-16T13:22:20;19.40;93.80
64012;DHT22;50211;52.768;12.124;2023-05-16T13:24:45;19.20;90.60
64012;DHT22;50211;52.768;12.124;2023-05-16T13:27:15;18.70;92.30
64012;DHT22;50211;52.768;12.124;2023-05-16T13:29:41;18.80;92.70
64012;DHT22;50211;52.768;12.124;2023-05-16T13:32:07;18.60;94.00
64012;DHT22;50211;52.768;12.124;2023-05-16T13:34:32;18.40;95.90
64012;DHT22;50211;52.768;12.124;2023-05-16T13:36:58;18.90;94.70
64012;DHT22;50211;52.768;12.124;2023-05-16T13:39:23;19.10;95.20
64012;DHT22;50211;52.768;12.124;2023-05-16T13:41:49;18.80;91.90
64012;DHT22;50211;52.768;12.124;2023-05-16T13:44:15;18.70;92.30
64012;DHT22;50211;52.768;12.124;2023-05-16T13:46:41;18.60;91.10
64012;DHT22;50211;52.768;12.124;2023-05-16T13:49:07;19.00;92.40
64012;DHT22;50211;52.768;12.124;2023-05-16T13:51:32;18.90;91.00
64012;DHT22;50211;52.768;12.124;2023-05-16T13:53:58;18.70;91.90
64012;DHT22;50211;52.768;12.124;2023-05-16T13:56:23;19.40;98.90
64012;DHT22;50211;52.768;12.124;2023-05-16T13:58:50;20.20;95.20
64012;DHT22;50211;52.768;12.124;2023-05-16T14:01:16;19.40;95.80
64012;DHT22;50211;52.768;12.124;2023-05-16T14:03:41;19.40;96.30
64012;DHT22;50211;52.768;12.124;2023-05-16T14:06:07;20.30;97.40
64012;DHT22;50211;52.768;12.124;2023-05-16T14:08:34;19.60;94.30
64012;DHT22;50211;52.768;12.124;2023-05-16T14:10:59;19.50;96.80
64012;DHT22;50211;52.768;12.124;2023-05-16T14:13:25;19.50;96.60
64012;DHT22;50211;52.768;12.124;2023-05-16T14:15:50;20.20;96.30
64012;DHT22;50211;52.768;12.124;2023-05-16T14:18:16;20.70;96.40
64012;DHT22;50211;52.768;12.124;2023-05-16T14:20:42;20.60;92.60
64012;DHT22;50211;52.768;12.124;2023-05-16T14:23:07;20.20;91.20
64012;DHT22;50211;52.768;12.124;2023-05-16T14:25:33;19.80;89.60
64012;DHT22;50211;52.768;12.124;2023-05-16T14:27:58;18.90;86.90
64012;DHT22;50211;52.768;12.124;2023-05-16T14:30:24;18.50;91.00
64012;DHT22;50211;52.768;12.124;2023-05-16T14:32:50;18.50;87.70
64012;DHT22;50211;52.768;12.124;2023-05-16T14:35:16;18.60;85.40
64012;DHT22;50211;52.768;12.124;2023-05-16T14:37:41;18.80;87.40
64012;DHT22;50211;52.768;12.124;2023-05-16T14:40:07;18.80;84.60
64012;DHT22;50211;52.768;12.124;2023-05-16T14:42:33;18.30;85.90
64012;DHT22;50211;52.768;12.124;2023-05-16T14:44:59;18.50;88.20
64012;DHT22;50211;52.768;12.124;2023-05-16T14:47:25;18.50;93.70
64012;DHT22;50211;52.768;12.124;2023-05-16T14:49:52;18.50;94.80
64012;DHT22;50211;52.768;12.124;2023-05-16T14:52:18;18.70;94.80
64012;DHT22;50211;52.768;12.124;2023-05-16T14:54:44;18.80;94.90
64012;DHT22;50211;52.768;12.124;2023-05-16T14:57:10;18.60;95.40
64012;DHT22;50211;52.768;12.124;2023-05-16T14:59:35;18.20;96.00
64012;DHT22;50211;52.768;12.124;2023-05-16T15:02:01;17.70;98.30
64012;DHT22;50211;52.768;12.124;2023-05-16T15:04:26;17.80;98.00
64012;DHT22;50211;52.768;12.124;2023-05-16T15:06:52;18.30;99.20
64012;DHT22;50211;52.768;12.124;2023-05-16T15:09:18;19.00;99.10
64012;DHT22;50211;52.768;12.124;2023-05-16T15:11:44;18.60;94.90
64012;DHT22;50211;52.768;12.124;2023-05-16T15:14:10;18.20;91.70
64012;DHT22;50211;52.768;12.124;2023-05-16T15:16:36;17.50;93.00
64012;DHT22;50211;52.768;12.124;2023-05-16T15:19:02;17.50;93.30
64012;DHT22;50211;52.768;12.124;2023-05-16T15:21:28;17.10;93.70
64012;DHT22;50211;52.768;12.124;2023-05-16T15:23:53;17.10;95.50
64012;DHT22;50211;52.768;12.124;2023-05-16T15:26:22;17.10;91.80
64012;DHT22;50211;52.768;12.124;2023-05-16T15:28:47;16.90;91.50
64012;DHT22;50211;52.768;12.124;2023-05-16T15:31:13;16.60;91.20
64012;DHT22;50211;52.768;12.124;2023-05-16T15:33:38;16.40;91.90
64012;DHT22;50211;52.768;12.124;2023-05-16T15:36:04;16.20;92.20
64012;DHT22;50211;52.768;12.124;2023-05-16T15:38:30;16.30;92.30